Capitol Logistics 14


PANC
Ted Stevens Anchorage International Airport
Anchorage, Alaska, US
RKSI
Incheon International Airport
Seoul, , KR

Route Details

Aircraft Information
Primary: Boeing 747-400BCF
Backup: Boeing 777-200LRF
Route Data
Distance: 3793nm
Sched. Duration: 8h 50m
Avg. Duration: 8h 63m (+13m)
Times Flown: 6
Recm'd Route: NODLE R220 NOSHO R220 NANZA R220 NODAN R217 GTC Y142 SAMON Y14 DRIPS Y16 SAPRA G585 SEL
Planned Altitude: 30,000ft
Origin Wx: PANC 271726Z 07003KT 1/4SM R07R/P6000FT FZFG VV003 00/M01 A2989 RMK AO2 TWR VIS 1/2 T00001011 $
Dest. Wx: RKSI 271730Z 33007KT 6000 FEW007 SCT030 BKN200 14/13 Q1022 NOSIG
Notes:

Financial History
Total Freight: 534,406lbs
Average Load: 89,068lbs/flt
Fuel Used: 809,021lbs
Avg. Fuel Used: 134,837lbs/flt
Fuel Expense: $1,019,205
Avg. Fuel Expense: $169,868
Avg. Fuel Cost: $1.25/lbs
Total Gross Income: $1,659,426
Pilot Pay: $1,424
Total Expenses: $179,530
Total Revenue: $447,500
Average Revenue: $276,571.02